sensor_id;sensor_type;location;lat;lon;timestamp;P1;durP1;ratioP1;P2;durP2;ratioP2
68097;SDS011;54886;47.036;15.466;2022-09-13T00:01:37;4.18;;;2.83;;
68097;SDS011;54886;47.036;15.466;2022-09-13T00:04:03;5.45;;;3.00;;
68097;SDS011;54886;47.036;15.466;2022-09-13T00:06:28;5.03;;;2.97;;
68097;SDS011;54886;47.036;15.466;2022-09-13T00:08:54;4.32;;;2.97;;
68097;SDS011;54886;47.036;15.466;2022-09-13T00:11:21;4.20;;;2.78;;
68097;SDS011;54886;47.036;15.466;2022-09-13T00:13:48;5.15;;;3.10;;
68097;SDS011;54886;47.036;15.466;2022-09-13T00:16:15;4.20;;;3.13;;
68097;SDS011;54886;47.036;15.466;2022-09-13T00:18:41;5.75;;;3.30;;
68097;SDS011;54886;47.036;15.466;2022-09-13T00:21:09;4.88;;;3.05;;
68097;SDS011;54886;47.036;15.466;2022-09-13T00:23:39;3.78;;;2.90;;
68097;SDS011;54886;47.036;15.466;2022-09-13T00:26:08;5.57;;;3.20;;
68097;SDS011;54886;47.036;15.466;2022-09-13T00:28:35;5.35;;;2.85;;
68097;SDS011;54886;47.036;15.466;2022-09-13T00:31:02;5.40;;;3.10;;
68097;SDS011;54886;47.036;15.466;2022-09-13T00:33:28;4.22;;;3.03;;
68097;SDS011;54886;47.036;15.466;2022-09-13T00:35:54;6.38;;;3.30;;
68097;SDS011;54886;47.036;15.466;2022-09-13T00:38:19;5.15;;;3.00;;
68097;SDS011;54886;47.036;15.466;2022-09-13T00:40:45;4.45;;;3.10;;
68097;SDS011;54886;47.036;15.466;2022-09-13T00:43:21;3.80;;;2.80;;
68097;SDS011;54886;47.036;15.466;2022-09-13T00:46:05;4.88;;;3.05;;
68097;SDS011;54886;47.036;15.466;2022-09-13T00:48:31;5.53;;;3.17;;
68097;SDS011;54886;47.036;15.466;2022-09-13T00:50:58;4.20;;;2.93;;
68097;SDS011;54886;47.036;15.466;2022-09-13T00:53:25;4.65;;;2.97;;
68097;SDS011;54886;47.036;15.466;2022-09-13T00:58:26;7.53;;;3.03;;
68097;SDS011;54886;47.036;15.466;2022-09-13T01:00:57;6.18;;;3.13;;
68097;SDS011;54886;47.036;15.466;2022-09-13T01:03:27;7.25;;;3.30;;
68097;SDS011;54886;47.036;15.466;2022-09-13T01:06:06;4.57;;;3.00;;
68097;SDS011;54886;47.036;15.466;2022-09-13T01:08:35;4.97;;;3.05;;
68097;SDS011;54886;47.036;15.466;2022-09-13T01:11:04;4.65;;;3.20;;
68097;SDS011;54886;47.036;15.466;2022-09-13T01:13:36;4.45;;;3.00;;
68097;SDS011;54886;47.036;15.466;2022-09-13T01:16:02;6.38;;;3.15;;
68097;SDS011;54886;47.036;15.466;2022-09-13T01:18:28;5.40;;;3.20;;
68097;SDS011;54886;47.036;15.466;2022-09-13T01:41:00;4.45;;;3.17;;
68097;SDS011;54886;47.036;15.466;2022-09-13T01:46:21;5.22;;;3.20;;
68097;SDS011;54886;47.036;15.466;2022-09-13T01:51:38;5.60;;;3.20;;
68097;SDS011;54886;47.036;15.466;2022-09-13T01:54:47;5.40;;;3.10;;
68097;SDS011;54886;47.036;15.466;2022-09-13T01:57:27;4.85;;;3.10;;
68097;SDS011;54886;47.036;15.466;2022-09-13T02:00:03;5.93;;;3.20;;
68097;SDS011;54886;47.036;15.466;2022-09-13T02:02:34;5.25;;;3.20;;
68097;SDS011;54886;47.036;15.466;2022-09-13T02:05:06;4.40;;;2.88;;
68097;SDS011;54886;47.036;15.466;2022-09-13T02:07:42;4.68;;;3.08;;
68097;SDS011;54886;47.036;15.466;2022-09-13T02:10:13;6.43;;;3.05;;
68097;SDS011;54886;47.036;15.466;2022-09-13T02:12:50;4.30;;;3.15;;
68097;SDS011;54886;47.036;15.466;2022-09-13T02:15:21;5.93;;;3.15;;
68097;SDS011;54886;47.036;15.466;2022-09-13T02:17:59;5.85;;;3.20;;
68097;SDS011;54886;47.036;15.466;2022-09-13T02:20:31;5.10;;;3.22;;
68097;SDS011;54886;47.036;15.466;2022-09-13T02:23:11;5.30;;;3.15;;
68097;SDS011;54886;47.036;15.466;2022-09-13T02:25:45;5.43;;;3.03;;
68097;SDS011;54886;47.036;15.466;2022-09-13T02:28:14;4.97;;;3.00;;
68097;SDS011;54886;47.036;15.466;2022-09-13T02:30:46;6.63;;;3.10;;
68097;SDS011;54886;47.036;15.466;2022-09-13T02:33:17;5.78;;;3.33;;
68097;SDS011;54886;47.036;15.466;2022-09-13T02:35:55;7.75;;;3.45;;
68097;SDS011;54886;47.036;15.466;2022-09-13T02:38:33;4.50;;;2.97;;
68097;SDS011;54886;47.036;15.466;2022-09-13T02:41:22;5.57;;;3.00;;
68097;SDS011;54886;47.036;15.466;2022-09-13T02:43:56;5.40;;;3.40;;
68097;SDS011;54886;47.036;15.466;2022-09-13T02:51:54;5.32;;;3.30;;
68097;SDS011;54886;47.036;15.466;2022-09-13T02:54:29;8.75;;;3.78;;
68097;SDS011;54886;47.036;15.466;2022-09-13T02:57:20;6.85;;;3.30;;
68097;SDS011;54886;47.036;15.466;2022-09-13T02:59:55;4.80;;;2.83;;
68097;SDS011;54886;47.036;15.466;2022-09-13T03:02:21;5.65;;;3.10;;
68097;SDS011;54886;47.036;15.466;2022-09-13T03:04:49;8.02;;;3.10;;
68097;SDS011;54886;47.036;15.466;2022-09-13T03:07:15;5.53;;;3.15;;
68097;SDS011;54886;47.036;15.466;2022-09-13T03:09:47;6.88;;;3.17;;
68097;SDS011;54886;47.036;15.466;2022-09-13T03:20:40;5.18;;;2.92;;
68097;SDS011;54886;47.036;15.466;2022-09-13T03:28:41;5.20;;;2.97;;
68097;SDS011;54886;47.036;15.466;2022-09-13T03:31:17;6.97;;;3.33;;
68097;SDS011;54886;47.036;15.466;2022-09-13T03:33:58;7.15;;;3.20;;
68097;SDS011;54886;47.036;15.466;2022-09-13T03:39:12;5.10;;;3.20;;
68097;SDS011;54886;47.036;15.466;2022-09-13T03:41:52;7.18;;;3.00;;
68097;SDS011;54886;47.036;15.466;2022-09-13T03:44:21;6.68;;;3.50;;
68097;SDS011;54886;47.036;15.466;2022-09-13T03:46:50;5.68;;;3.30;;
68097;SDS011;54886;47.036;15.466;2022-09-13T03:49:21;8.65;;;3.38;;
68097;SDS011;54886;47.036;15.466;2022-09-13T03:51:48;6.60;;;3.75;;
68097;SDS011;54886;47.036;15.466;2022-09-13T03:54:17;7.05;;;3.65;;
68097;SDS011;54886;47.036;15.466;2022-09-13T03:59:43;5.63;;;3.47;;
68097;SDS011;54886;47.036;15.466;2022-09-13T04:02:14;5.97;;;3.40;;
68097;SDS011;54886;47.036;15.466;2022-09-13T04:04:41;4.82;;;3.30;;
68097;SDS011;54886;47.036;15.466;2022-09-13T04:07:12;5.33;;;3.53;;
68097;SDS011;54886;47.036;15.466;2022-09-13T04:09:42;6.22;;;3.53;;
68097;SDS011;54886;47.036;15.466;2022-09-13T04:12:08;6.35;;;3.45;;
68097;SDS011;54886;47.036;15.466;2022-09-13T04:14:38;6.07;;;3.55;;
68097;SDS011;54886;47.036;15.466;2022-09-13T04:17:03;5.32;;;3.40;;
68097;SDS011;54886;47.036;15.466;2022-09-13T04:19:29;7.18;;;3.85;;
68097;SDS011;54886;47.036;15.466;2022-09-13T04:21:55;5.50;;;3.53;;
68097;SDS011;54886;47.036;15.466;2022-09-13T04:24:23;7.50;;;4.00;;
68097;SDS011;54886;47.036;15.466;2022-09-13T04:26:53;8.02;;;3.75;;
68097;SDS011;54886;47.036;15.466;2022-09-13T04:29:19;10.00;;;3.95;;
68097;SDS011;54886;47.036;15.466;2022-09-13T04:31:47;6.53;;;4.00;;
68097;SDS011;54886;47.036;15.466;2022-09-13T04:34:14;5.68;;;4.00;;
68097;SDS011;54886;47.036;15.466;2022-09-13T04:36:41;6.07;;;3.88;;
68097;SDS011;54886;47.036;15.466;2022-09-13T04:39:06;6.75;;;3.70;;
68097;SDS011;54886;47.036;15.466;2022-09-13T04:41:32;7.47;;;3.95;;
68097;SDS011;54886;47.036;15.466;2022-09-13T04:43:58;7.65;;;4.05;;
68097;SDS011;54886;47.036;15.466;2022-09-13T04:46:24;7.03;;;4.38;;
68097;SDS011;54886;47.036;15.466;2022-09-13T04:48:50;8.88;;;4.20;;
68097;SDS011;54886;47.036;15.466;2022-09-13T04:51:16;6.38;;;3.67;;
68097;SDS011;54886;47.036;15.466;2022-09-13T04:53:45;8.95;;;4.28;;
68097;SDS011;54886;47.036;15.466;2022-09-13T04:56:10;6.90;;;4.28;;
68097;SDS011;54886;47.036;15.466;2022-09-13T04:58:38;8.25;;;4.07;;
68097;SDS011;54886;47.036;15.466;2022-09-13T05:01:05;6.75;;;3.97;;
68097;SDS011;54886;47.036;15.466;2022-09-13T05:03:32;8.23;;;4.05;;
68097;SDS011;54886;47.036;15.466;2022-09-13T05:08:28;7.43;;;3.88;;
68097;SDS011;54886;47.036;15.466;2022-09-13T05:10:53;6.47;;;3.70;;
68097;SDS011;54886;47.036;15.466;2022-09-13T05:13:19;8.07;;;3.80;;
68097;SDS011;54886;47.036;15.466;2022-09-13T05:15:45;6.15;;;3.60;;
68097;SDS011;54886;47.036;15.466;2022-09-13T05:18:10;7.00;;;4.10;;
68097;SDS011;54886;47.036;15.466;2022-09-13T05:20:37;7.85;;;3.95;;
68097;SDS011;54886;47.036;15.466;2022-09-13T05:23:02;7.38;;;3.90;;
68097;SDS011;54886;47.036;15.466;2022-09-13T05:25:28;8.75;;;4.32;;
68097;SDS011;54886;47.036;15.466;2022-09-13T05:27:53;8.25;;;4.15;;
68097;SDS011;54886;47.036;15.466;2022-09-13T05:30:19;6.88;;;3.67;;
68097;SDS011;54886;47.036;15.466;2022-09-13T05:32:44;9.10;;;4.47;;
68097;SDS011;54886;47.036;15.466;2022-09-13T05:35:10;7.40;;;4.07;;
68097;SDS011;54886;47.036;15.466;2022-09-13T05:37:35;9.63;;;4.20;;
68097;SDS011;54886;47.036;15.466;2022-09-13T05:40:01;10.50;;;4.10;;
68097;SDS011;54886;47.036;15.466;2022-09-13T05:42:27;8.20;;;4.38;;
68097;SDS011;54886;47.036;15.466;2022-09-13T05:44:52;8.93;;;4.43;;
68097;SDS011;54886;47.036;15.466;2022-09-13T05:47:18;8.43;;;4.30;;
68097;SDS011;54886;47.036;15.466;2022-09-13T05:49:43;6.85;;;4.18;;
68097;SDS011;54886;47.036;15.466;2022-09-13T05:52:08;6.65;;;3.88;;
68097;SDS011;54886;47.036;15.466;2022-09-13T05:54:34;10.77;;;4.18;;
68097;SDS011;54886;47.036;15.466;2022-09-13T05:57:00;9.82;;;4.20;;
68097;SDS011;54886;47.036;15.466;2022-09-13T05:59:26;7.05;;;4.00;;
68097;SDS011;54886;47.036;15.466;2022-09-13T06:01:51;8.93;;;4.30;;
68097;SDS011;54886;47.036;15.466;2022-09-13T06:04:17;7.75;;;4.10;;
68097;SDS011;54886;47.036;15.466;2022-09-13T06:06:42;9.68;;;4.00;;
68097;SDS011;54886;47.036;15.466;2022-09-13T06:09:09;9.15;;;4.35;;
68097;SDS011;54886;47.036;15.466;2022-09-13T06:11:35;10.80;;;3.95;;
68097;SDS011;54886;47.036;15.466;2022-09-13T06:14:00;11.35;;;3.83;;
68097;SDS011;54886;47.036;15.466;2022-09-13T06:16:26;9.25;;;3.95;;
68097;SDS011;54886;47.036;15.466;2022-09-13T06:18:51;8.00;;;3.88;;
68097;SDS011;54886;47.036;15.466;2022-09-13T06:21:18;10.70;;;4.00;;
68097;SDS011;54886;47.036;15.466;2022-09-13T06:26:16;8.27;;;3.90;;
68097;SDS011;54886;47.036;15.466;2022-09-13T06:28:47;7.88;;;4.15;;
68097;SDS011;54886;47.036;15.466;2022-09-13T06:31:14;8.60;;;4.03;;
68097;SDS011;54886;47.036;15.466;2022-09-13T06:33:41;8.18;;;4.10;;
68097;SDS011;54886;47.036;15.466;2022-09-13T06:36:08;6.15;;;3.90;;
68097;SDS011;54886;47.036;15.466;2022-09-13T06:38:36;9.25;;;4.15;;
68097;SDS011;54886;47.036;15.466;2022-09-13T06:41:07;9.43;;;4.30;;
68097;SDS011;54886;47.036;15.466;2022-09-13T06:43:34;13.30;;;4.18;;
68097;SDS011;54886;47.036;15.466;2022-09-13T06:48:34;7.93;;;4.28;;
68097;SDS011;54886;47.036;15.466;2022-09-13T06:51:02;7.97;;;4.20;;
68097;SDS011;54886;47.036;15.466;2022-09-13T06:53:30;7.65;;;4.28;;
68097;SDS011;54886;47.036;15.466;2022-09-13T06:56:09;9.60;;;4.10;;
68097;SDS011;54886;47.036;15.466;2022-09-13T06:58:35;9.85;;;4.18;;
68097;SDS011;54886;47.036;15.466;2022-09-13T07:03:53;7.97;;;4.18;;
68097;SDS011;54886;47.036;15.466;2022-09-13T07:06:25;8.75;;;4.40;;
68097;SDS011;54886;47.036;15.466;2022-09-13T07:08:53;9.00;;;4.28;;
68097;SDS011;54886;47.036;15.466;2022-09-13T07:11:21;9.60;;;6.55;;
68097;SDS011;54886;47.036;15.466;2022-09-13T07:13:49;10.00;;;4.30;;
68097;SDS011;54886;47.036;15.466;2022-09-13T07:16:19;6.53;;;3.95;;
68097;SDS011;54886;47.036;15.466;2022-09-13T07:18:52;7.90;;;4.00;;
68097;SDS011;54886;47.036;15.466;2022-09-13T07:21:19;7.15;;;3.88;;
68097;SDS011;54886;47.036;15.466;2022-09-13T07:23:46;9.98;;;4.10;;
68097;SDS011;54886;47.036;15.466;2022-09-13T07:26:12;10.50;;;4.40;;
68097;SDS011;54886;47.036;15.466;2022-09-13T07:28:38;11.68;;;4.20;;
68097;SDS011;54886;47.036;15.466;2022-09-13T07:33:30;7.25;;;4.25;;
68097;SDS011;54886;47.036;15.466;2022-09-13T07:35:56;8.55;;;4.25;;
68097;SDS011;54886;47.036;15.466;2022-09-13T07:38:22;13.55;;;4.32;;
68097;SDS011;54886;47.036;15.466;2022-09-13T07:40:57;7.93;;;4.20;;
68097;SDS011;54886;47.036;15.466;2022-09-13T07:43:23;7.22;;;3.83;;
68097;SDS011;54886;47.036;15.466;2022-09-13T07:46:00;9.30;;;4.30;;
68097;SDS011;54886;47.036;15.466;2022-09-13T07:48:36;7.90;;;3.95;;
68097;SDS011;54886;47.036;15.466;2022-09-13T07:53:29;10.15;;;4.10;;
68097;SDS011;54886;47.036;15.466;2022-09-13T07:55:59;8.65;;;4.35;;
68097;SDS011;54886;47.036;15.466;2022-09-13T07:58:26;8.07;;;4.13;;
68097;SDS011;54886;47.036;15.466;2022-09-13T08:00:51;9.27;;;4.10;;
68097;SDS011;54886;47.036;15.466;2022-09-13T08:03:17;6.88;;;4.00;;
68097;SDS011;54886;47.036;15.466;2022-09-13T08:05:42;6.53;;;3.90;;
68097;SDS011;54886;47.036;15.466;2022-09-13T08:08:08;7.13;;;4.10;;
68097;SDS011;54886;47.036;15.466;2022-09-13T08:10:33;8.20;;;3.90;;
68097;SDS011;54886;47.036;15.466;2022-09-13T08:12:59;6.80;;;3.65;;
68097;SDS011;54886;47.036;15.466;2022-09-13T08:15:25;8.27;;;3.90;;
68097;SDS011;54886;47.036;15.466;2022-09-13T08:17:51;9.23;;;3.42;;
68097;SDS011;54886;47.036;15.466;2022-09-13T08:20:18;8.27;;;3.60;;
68097;SDS011;54886;47.036;15.466;2022-09-13T08:22:44;6.03;;;3.90;;
68097;SDS011;54886;47.036;15.466;2022-09-13T08:25:09;8.20;;;4.15;;
68097;SDS011;54886;47.036;15.466;2022-09-13T08:27:35;9.00;;;4.22;;
68097;SDS011;54886;47.036;15.466;2022-09-13T08:30:00;9.40;;;4.45;;
68097;SDS011;54886;47.036;15.466;2022-09-13T08:32:26;10.20;;;4.25;;
68097;SDS011;54886;47.036;15.466;2022-09-13T08:34:51;7.65;;;4.30;;
68097;SDS011;54886;47.036;15.466;2022-09-13T08:37:17;9.55;;;4.85;;
68097;SDS011;54886;47.036;15.466;2022-09-13T08:39:42;8.13;;;4.40;;
68097;SDS011;54886;47.036;15.466;2022-09-13T08:44:53;8.43;;;4.25;;
68097;SDS011;54886;47.036;15.466;2022-09-13T08:49:59;6.50;;;4.00;;
68097;SDS011;54886;47.036;15.466;2022-09-13T08:52:31;8.05;;;3.65;;
68097;SDS011;54886;47.036;15.466;2022-09-13T08:55:03;6.22;;;3.70;;
68097;SDS011;54886;47.036;15.466;2022-09-13T08:57:49;6.38;;;3.63;;
68097;SDS011;54886;47.036;15.466;2022-09-13T09:05:16;6.25;;;4.03;;
68097;SDS011;54886;47.036;15.466;2022-09-13T09:07:45;6.25;;;3.80;;
68097;SDS011;54886;47.036;15.466;2022-09-13T09:15:17;6.03;;;3.65;;
68097;SDS011;54886;47.036;15.466;2022-09-13T09:17:50;5.75;;;3.42;;
68097;SDS011;54886;47.036;15.466;2022-09-13T09:25:46;8.35;;;4.30;;
68097;SDS011;54886;47.036;15.466;2022-09-13T09:28:13;9.07;;;3.75;;
68097;SDS011;54886;47.036;15.466;2022-09-13T09:31:01;7.35;;;3.72;;
68097;SDS011;54886;47.036;15.466;2022-09-13T09:38:49;8.07;;;3.65;;
68097;SDS011;54886;47.036;15.466;2022-09-13T09:43:53;5.75;;;3.80;;
68097;SDS011;54886;47.036;15.466;2022-09-13T09:46:22;9.18;;;3.65;;
68097;SDS011;54886;47.036;15.466;2022-09-13T09:48:56;6.47;;;3.97;;
68097;SDS011;54886;47.036;15.466;2022-09-13T09:51:51;7.53;;;4.00;;
68097;SDS011;54886;47.036;15.466;2022-09-13T09:54:17;7.68;;;3.90;;
68097;SDS011;54886;47.036;15.466;2022-09-13T09:56:51;6.30;;;3.83;;
68097;SDS011;54886;47.036;15.466;2022-09-13T09:59:24;6.78;;;3.40;;
68097;SDS011;54886;47.036;15.466;2022-09-13T10:01:55;5.47;;;3.25;;
68097;SDS011;54886;47.036;15.466;2022-09-13T10:04:21;5.63;;;3.40;;
68097;SDS011;54886;47.036;15.466;2022-09-13T10:06:48;7.70;;;3.70;;
68097;SDS011;54886;47.036;15.466;2022-09-13T10:09:18;6.00;;;3.17;;
68097;SDS011;54886;47.036;15.466;2022-09-13T10:14:26;6.25;;;3.45;;
68097;SDS011;54886;47.036;15.466;2022-09-13T10:17:28;10.05;;;3.38;;
68097;SDS011;54886;47.036;15.466;2022-09-13T10:22:30;7.25;;;3.88;;
68097;SDS011;54886;47.036;15.466;2022-09-13T10:27:50;7.75;;;3.20;;
68097;SDS011;54886;47.036;15.466;2022-09-13T10:30:39;6.15;;;3.28;;
68097;SDS011;54886;47.036;15.466;2022-09-13T10:36:29;6.68;;;3.53;;
68097;SDS011;54886;47.036;15.466;2022-09-13T10:38:57;7.55;;;3.38;;
68097;SDS011;54886;47.036;15.466;2022-09-13T10:41:25;6.00;;;3.30;;
68097;SDS011;54886;47.036;15.466;2022-09-13T10:43:57;5.13;;;3.17;;
68097;SDS011;54886;47.036;15.466;2022-09-13T10:46:28;7.45;;;3.65;;
68097;SDS011;54886;47.036;15.466;2022-09-13T10:48:55;5.55;;;3.42;;
68097;SDS011;54886;47.036;15.466;2022-09-13T10:54:09;6.25;;;2.80;;
68097;SDS011;54886;47.036;15.466;2022-09-13T10:56:41;4.72;;;3.15;;
68097;SDS011;54886;47.036;15.466;2022-09-13T11:13:38;7.43;;;2.83;;
68097;SDS011;54886;47.036;15.466;2022-09-13T11:21:59;6.22;;;2.97;;
68097;SDS011;54886;47.036;15.466;2022-09-13T11:30:23;5.22;;;3.10;;
68097;SDS011;54886;47.036;15.466;2022-09-13T11:32:59;3.70;;;2.80;;
68097;SDS011;54886;47.036;15.466;2022-09-13T11:39:00;5.97;;;2.83;;
68097;SDS011;54886;47.036;15.466;2022-09-13T11:44:56;7.70;;;3.75;;
68097;SDS011;54886;47.036;15.466;2022-09-13T11:53:42;5.35;;;2.83;;
68097;SDS011;54886;47.036;15.466;2022-09-13T11:59:07;5.05;;;2.75;;
68097;SDS011;54886;47.036;15.466;2022-09-13T12:01:48;4.53;;;2.83;;
68097;SDS011;54886;47.036;15.466;2022-09-13T12:07:02;3.42;;;2.50;;
68097;SDS011;54886;47.036;15.466;2022-09-13T12:09:37;5.13;;;2.40;;
68097;SDS011;54886;47.036;15.466;2022-09-13T12:12:12;4.30;;;2.60;;
68097;SDS011;54886;47.036;15.466;2022-09-13T12:14:46;4.78;;;2.70;;
68097;SDS011;54886;47.036;15.466;2022-09-13T12:19:55;5.60;;;2.58;;
68097;SDS011;54886;47.036;15.466;2022-09-13T12:22:25;3.95;;;2.55;;
68097;SDS011;54886;47.036;15.466;2022-09-13T12:24:55;3.33;;;2.40;;
68097;SDS011;54886;47.036;15.466;2022-09-13T12:27:37;4.35;;;2.63;;
68097;SDS011;54886;47.036;15.466;2022-09-13T12:30:06;4.93;;;2.47;;
68097;SDS011;54886;47.036;15.466;2022-09-13T12:32:39;2.97;;;2.38;;
68097;SDS011;54886;47.036;15.466;2022-09-13T12:56:27;3.30;;;2.20;;
68097;SDS011;54886;47.036;15.466;2022-09-13T12:59:33;3.13;;;2.40;;
68097;SDS011;54886;47.036;15.466;2022-09-13T13:05:25;4.85;;;2.60;;
68097;SDS011;54886;47.036;15.466;2022-09-13T13:07:56;7.28;;;2.50;;
68097;SDS011;54886;47.036;15.466;2022-09-13T13:13:14;4.72;;;2.60;;
68097;SDS011;54886;47.036;15.466;2022-09-13T13:18:26;4.55;;;2.67;;
68097;SDS011;54886;47.036;15.466;2022-09-13T13:34:00;3.40;;;2.35;;
68097;SDS011;54886;47.036;15.466;2022-09-13T13:36:46;4.70;;;2.50;;
68097;SDS011;54886;47.036;15.466;2022-09-13T13:46:53;6.10;;;2.83;;
68097;SDS011;54886;47.036;15.466;2022-09-13T13:57:27;3.92;;;2.60;;
68097;SDS011;54886;47.036;15.466;2022-09-13T14:00:18;4.38;;;2.50;;
68097;SDS011;54886;47.036;15.466;2022-09-13T14:14:18;3.78;;;2.70;;
68097;SDS011;54886;47.036;15.466;2022-09-13T14:19:39;6.38;;;3.10;;
68097;SDS011;54886;47.036;15.466;2022-09-13T14:22:15;3.28;;;2.45;;
68097;SDS011;54886;47.036;15.466;2022-09-13T14:24:46;3.72;;;2.65;;
68097;SDS011;54886;47.036;15.466;2022-09-13T14:29:53;5.13;;;2.67;;
68097;SDS011;54886;47.036;15.466;2022-09-13T14:32:23;4.78;;;2.60;;
68097;SDS011;54886;47.036;15.466;2022-09-13T14:35:00;4.38;;;3.13;;
68097;SDS011;54886;47.036;15.466;2022-09-13T14:37:29;6.75;;;3.17;;
68097;SDS011;54886;47.036;15.466;2022-09-13T14:40:22;5.72;;;2.53;;
68097;SDS011;54886;47.036;15.466;2022-09-13T14:42:50;5.25;;;2.60;;
68097;SDS011;54886;47.036;15.466;2022-09-13T14:45:24;5.88;;;2.65;;
68097;SDS011;54886;47.036;15.466;2022-09-13T14:48:04;6.25;;;2.50;;
68097;SDS011;54886;47.036;15.466;2022-09-13T14:50:36;5.18;;;2.60;;
68097;SDS011;54886;47.036;15.466;2022-09-13T14:53:09;6.55;;;2.65;;
68097;SDS011;54886;47.036;15.466;2022-09-13T14:55:53;4.55;;;2.45;;
68097;SDS011;54886;47.036;15.466;2022-09-13T15:00:55;6.47;;;2.60;;
68097;SDS011;54886;47.036;15.466;2022-09-13T15:03:27;4.90;;;2.38;;
68097;SDS011;54886;47.036;15.466;2022-09-13T15:05:53;5.60;;;2.78;;
68097;SDS011;54886;47.036;15.466;2022-09-13T15:10:52;4.88;;;2.60;;
68097;SDS011;54886;47.036;15.466;2022-09-13T15:13:21;7.88;;;2.70;;
68097;SDS011;54886;47.036;15.466;2022-09-13T15:15:47;4.72;;;2.42;;
68097;SDS011;54886;47.036;15.466;2022-09-13T15:23:27;8.25;;;2.40;;
68097;SDS011;54886;47.036;15.466;2022-09-13T15:25:57;5.07;;;2.47;;
68097;SDS011;54886;47.036;15.466;2022-09-13T15:33:45;11.30;;;2.70;;
68097;SDS011;54886;47.036;15.466;2022-09-13T15:39:01;10.30;;;2.70;;
68097;SDS011;54886;47.036;15.466;2022-09-13T15:41:37;6.15;;;2.63;;
68097;SDS011;54886;47.036;15.466;2022-09-13T15:44:14;3.78;;;2.40;;
68097;SDS011;54886;47.036;15.466;2022-09-13T15:46:49;3.70;;;2.58;;
68097;SDS011;54886;47.036;15.466;2022-09-13T15:49:20;3.08;;;2.20;;
68097;SDS011;54886;47.036;15.466;2022-09-13T15:51:52;4.57;;;2.40;;
68097;SDS011;54886;47.036;15.466;2022-09-13T15:54:19;3.95;;;2.40;;
68097;SDS011;54886;47.036;15.466;2022-09-13T15:56:47;5.22;;;2.42;;
68097;SDS011;54886;47.036;15.466;2022-09-13T15:59:15;5.00;;;2.60;;
68097;SDS011;54886;47.036;15.466;2022-09-13T16:01:43;4.63;;;2.58;;
68097;SDS011;54886;47.036;15.466;2022-09-13T16:04:09;4.68;;;2.65;;
68097;SDS011;54886;47.036;15.466;2022-09-13T16:06:35;9.15;;;2.90;;
68097;SDS011;54886;47.036;15.466;2022-09-13T16:09:06;8.20;;;2.80;;
68097;SDS011;54886;47.036;15.466;2022-09-13T16:11:40;16.25;;;3.10;;
68097;SDS011;54886;47.036;15.466;2022-09-13T16:14:05;9.20;;;2.85;;
68097;SDS011;54886;47.036;15.466;2022-09-13T16:16:31;13.13;;;2.90;;
68097;SDS011;54886;47.036;15.466;2022-09-13T16:18:56;10.77;;;2.63;;
68097;SDS011;54886;47.036;15.466;2022-09-13T16:21:22;5.10;;;2.80;;
68097;SDS011;54886;47.036;15.466;2022-09-13T16:23:47;10.70;;;2.80;;
68097;SDS011;54886;47.036;15.466;2022-09-13T16:26:12;20.38;;;3.83;;
68097;SDS011;54886;47.036;15.466;2022-09-13T16:28:38;21.17;;;3.25;;
68097;SDS011;54886;47.036;15.466;2022-09-13T16:31:03;13.25;;;2.70;;
68097;SDS011;54886;47.036;15.466;2022-09-13T16:33:29;9.13;;;2.70;;
68097;SDS011;54886;47.036;15.466;2022-09-13T16:35:55;8.50;;;2.90;;
68097;SDS011;54886;47.036;15.466;2022-09-13T16:38:21;8.68;;;2.75;;
68097;SDS011;54886;47.036;15.466;2022-09-13T16:40:47;4.88;;;2.50;;
68097;SDS011;54886;47.036;15.466;2022-09-13T16:43:13;8.63;;;2.80;;
68097;SDS011;54886;47.036;15.466;2022-09-13T16:45:39;4.75;;;2.90;;
68097;SDS011;54886;47.036;15.466;2022-09-13T16:48:05;4.82;;;2.97;;
68097;SDS011;54886;47.036;15.466;2022-09-13T16:50:31;7.75;;;2.70;;
68097;SDS011;54886;47.036;15.466;2022-09-13T16:52:56;8.30;;;3.08;;
68097;SDS011;54886;47.036;15.466;2022-09-13T16:55:22;7.00;;;3.10;;
68097;SDS011;54886;47.036;15.466;2022-09-13T16:57:48;7.20;;;2.90;;
68097;SDS011;54886;47.036;15.466;2022-09-13T17:00:16;5.28;;;2.90;;
68097;SDS011;54886;47.036;15.466;2022-09-13T17:05:09;3.88;;;2.58;;
68097;SDS011;54886;47.036;15.466;2022-09-13T17:07:35;6.57;;;2.80;;
68097;SDS011;54886;47.036;15.466;2022-09-13T17:10:02;6.90;;;3.22;;
68097;SDS011;54886;47.036;15.466;2022-09-13T17:12:29;7.00;;;2.80;;
68097;SDS011;54886;47.036;15.466;2022-09-13T17:14:54;7.25;;;2.65;;
68097;SDS011;54886;47.036;15.466;2022-09-13T17:17:21;6.50;;;2.83;;
68097;SDS011;54886;47.036;15.466;2022-09-13T17:19:46;7.22;;;3.22;;
68097;SDS011;54886;47.036;15.466;2022-09-13T17:22:12;4.40;;;2.70;;
68097;SDS011;54886;47.036;15.466;2022-09-13T17:24:38;7.32;;;2.83;;
68097;SDS011;54886;47.036;15.466;2022-09-13T17:27:04;5.32;;;3.00;;
68097;SDS011;54886;47.036;15.466;2022-09-13T17:29:31;4.97;;;2.65;;
68097;SDS011;54886;47.036;15.466;2022-09-13T17:31:57;4.22;;;2.63;;
68097;SDS011;54886;47.036;15.466;2022-09-13T17:34:24;4.88;;;2.72;;
68097;SDS011;54886;47.036;15.466;2022-09-13T17:36:49;4.13;;;2.67;;
68097;SDS011;54886;47.036;15.466;2022-09-13T17:39:16;8.18;;;2.95;;
68097;SDS011;54886;47.036;15.466;2022-09-13T17:41:42;5.78;;;2.80;;
68097;SDS011;54886;47.036;15.466;2022-09-13T17:44:08;5.32;;;2.80;;
68097;SDS011;54886;47.036;15.466;2022-09-13T17:46:36;5.18;;;2.97;;
68097;SDS011;54886;47.036;15.466;2022-09-13T17:49:01;8.05;;;2.80;;
68097;SDS011;54886;47.036;15.466;2022-09-13T17:51:28;8.68;;;2.80;;
68097;SDS011;54886;47.036;15.466;2022-09-13T17:53:56;7.07;;;2.80;;
68097;SDS011;54886;47.036;15.466;2022-09-13T17:56:25;6.72;;;2.90;;
68097;SDS011;54886;47.036;15.466;2022-09-13T17:59:02;7.55;;;3.00;;
68097;SDS011;54886;47.036;15.466;2022-09-13T18:01:29;5.53;;;3.05;;
68097;SDS011;54886;47.036;15.466;2022-09-13T18:03:54;7.50;;;2.92;;
68097;SDS011;54886;47.036;15.466;2022-09-13T18:06:20;5.05;;;2.83;;
68097;SDS011;54886;47.036;15.466;2022-09-13T18:08:45;4.63;;;2.90;;
68097;SDS011;54886;47.036;15.466;2022-09-13T18:11:12;5.90;;;2.88;;
68097;SDS011;54886;47.036;15.466;2022-09-13T18:13:40;5.95;;;3.22;;
68097;SDS011;54886;47.036;15.466;2022-09-13T18:16:08;5.80;;;3.13;;
68097;SDS011;54886;47.036;15.466;2022-09-13T18:18:35;8.77;;;3.50;;
68097;SDS011;54886;47.036;15.466;2022-09-13T18:21:01;9.75;;;3.28;;
68097;SDS011;54886;47.036;15.466;2022-09-13T18:23:28;7.90;;;3.00;;
68097;SDS011;54886;47.036;15.466;2022-09-13T18:26:00;5.63;;;3.13;;
68097;SDS011;54886;47.036;15.466;2022-09-13T18:28:27;6.43;;;3.20;;
68097;SDS011;54886;47.036;15.466;2022-09-13T18:30:54;5.73;;;3.07;;
68097;SDS011;54886;47.036;15.466;2022-09-13T18:33:20;6.32;;;3.13;;
68097;SDS011;54886;47.036;15.466;2022-09-13T18:35:57;11.77;;;3.20;;
68097;SDS011;54886;47.036;15.466;2022-09-13T18:38:24;4.65;;;3.00;;
68097;SDS011;54886;47.036;15.466;2022-09-13T18:41:51;5.93;;;3.22;;
68097;SDS011;54886;47.036;15.466;2022-09-13T18:43:53;6.78;;;3.42;;
68097;SDS011;54886;47.036;15.466;2022-09-13T18:46:20;6.70;;;3.20;;
68097;SDS011;54886;47.036;15.466;2022-09-13T18:48:51;4.63;;;3.00;;
68097;SDS011;54886;47.036;15.466;2022-09-13T18:51:19;6.00;;;3.28;;
68097;SDS011;54886;47.036;15.466;2022-09-13T18:53:46;5.43;;;3.15;;
68097;SDS011;54886;47.036;15.466;2022-09-13T18:56:13;6.90;;;3.25;;
68097;SDS011;54886;47.036;15.466;2022-09-13T18:58:41;5.30;;;3.20;;
68097;SDS011;54886;47.036;15.466;2022-09-13T19:01:08;6.13;;;3.40;;
68097;SDS011;54886;47.036;15.466;2022-09-13T19:03:36;4.38;;;3.40;;